I Boat 2 — 2CMM8 — position and weather

sailwx.info

Track history (hours):
 
Tides and Currents Weather Stations Pressure Air Temp Water Temp Dewpoint Dewpoint Depression Visibility Wind Speed Wind Dir Waves Ship Positions

I Boat 2

Last reported at 2016-Sep-19 02:26 UTC. Time now 2016-Sep-29 05:03 UTC.
Position N 44°06' E 009°51'.
Warning: this ship's position is 10 days out of date.

Length 40 m; draft 2.4 m.

Type: Pleasure craft. MMSI: 235074051.

Date/timePositionNaut miles runAvg speedWind from/ knotsBaromVisibWave heightAir tempDewpointWater temp
2016-Sep-19 02:26N 44°06' E 009°51'12 6.6
2016-Sep-19 00:34N 44°03' E 009°35'10711.8
2016-Sep-18 15:33N 43°39' E 007°11'3 3.4
2016-Sep-18 14:33N 43°39' E 007°15'  
2016-Sep-11 19:26N 43°41' E 007°22'1214.1
2016-Sep-11 18:33N 43°33' E 007°09'6 6.4
2016-Sep-11 17:33N 43°29' E 007°02'2 0.1
2016-Sep-10 11:33N 43°28' E 006°59'1212.6
2016-Sep-10 10:34N 43°35' E 007°13'10 0.7
2016-Sep-09 19:31N 43°42' E 007°24'1414.6
2016-Sep-09 18:33N 43°32' E 007°09'6 5.6
2016-Sep-09 17:33N 43°31' E 007°01'0 0.4
2016-Sep-09 16:23N 43°31' E 007°02'0 0.0
2016-Sep-09 15:26N 43°31' E 007°02'0 0.0
2016-Sep-09 14:26N 43°31' E 007°02'1 1.5
2016-Sep-09 13:33N 43°30' E 007°03'1313.3
2016-Sep-09 12:33N 43°38' E 007°17'  
Track history (hours):
 
Tides and Currents Weather Stations Pressure Air Temp Water Temp Dewpoint Dewpoint Depression Visibility Wind Speed Wind Dir Waves Ship Positions

I Boat 2

Last reported at 2016-Sep-19 02:26 UTC. Time now 2016-Sep-29 05:03 UTC.
Position N 44°06' E 009°51'.
Warning: this ship's position is 10 days out of date.

Length 40 m; draft 2.4 m.

Type: Pleasure craft. MMSI: 235074051.

Date/timePositionNaut miles runAvg speedWind from/ knotsBaromVisibWave heightAir tempDewpointWater temp
2016-Sep-19 02:26N 44°06' E 009°51'12 6.6
2016-Sep-19 00:34N 44°03' E 009°35'10711.8
2016-Sep-18 15:33N 43°39' E 007°11'3 3.4
2016-Sep-18 14:33N 43°39' E 007°15'  
2016-Sep-11 19:26N 43°41' E 007°22'1214.1
2016-Sep-11 18:33N 43°33' E 007°09'6 6.4
2016-Sep-11 17:33N 43°29' E 007°02'2 0.1
2016-Sep-10 11:33N 43°28' E 006°59'1212.6
2016-Sep-10 10:34N 43°35' E 007°13'10 0.7
2016-Sep-09 19:31N 43°42' E 007°24'1414.6
2016-Sep-09 18:33N 43°32' E 007°09'6 5.6
2016-Sep-09 17:33N 43°31' E 007°01'0 0.4
2016-Sep-09 16:23N 43°31' E 007°02'0 0.0
2016-Sep-09 15:26N 43°31' E 007°02'0 0.0
2016-Sep-09 14:26N 43°31' E 007°02'1 1.5
2016-Sep-09 13:33N 43°30' E 007°03'1313.3
2016-Sep-09 12:33N 43°38' E 007°17'  

Dump ship's entire track history